Aurelia, Iowa
Current Conditions -  °F | °C
As of 3:55 AM on Friday 31 Oct 2014 (Local Time) from KCKP Reporting Station
Clear Clear  
Wind Chill: 19°   Ceiling: Unl
Heat Index: 28°   Visibility: 10mi
Dew Point: 22°   Wind: 10mph
Humidity: 77%   Direction: 360°N
Pressure: 30.47"   Gusts: NA
Location:  42.71°N, 95.44°W
Report Text: KCKP 310855Z AUTO 36009KT 10SM CLR M02/M06 A3047 RMK AO2 T10211056
Loading
Personal Weather Stations






























Interactive Weather Map
Tropical Storm Tracking
New forecast layout! Learn more

10-Day Weather Forecast

Advertisements
Track Severe Weather on mobile